sensor_id;sensor_type;location;lat;lon;timestamp;pressure;altitude;pressure_sealevel;temperature;humidity
71774;BME280;59607;52.130;5.430;2024-03-22T00:02:13;102158.75;;;11.14;100.00
71774;BME280;59607;52.130;5.430;2024-03-22T00:04:40;102165.66;;;11.15;100.00
71774;BME280;59607;52.130;5.430;2024-03-22T00:07:06;102155.16;;;11.15;100.00
71774;BME280;59607;52.130;5.430;2024-03-22T00:09:34;102148.81;;;11.17;100.00
71774;BME280;59607;52.130;5.430;2024-03-22T00:12:00;102156.56;;;11.19;100.00
71774;BME280;59607;52.130;5.430;2024-03-22T00:14:25;102143.28;;;11.20;100.00
71774;BME280;59607;52.130;5.430;2024-03-22T00:16:54;102144.94;;;11.21;100.00
71774;BME280;59607;52.130;5.430;2024-03-22T00:19:20;102128.22;;;11.22;100.00
71774;BME280;59607;52.130;5.430;2024-03-22T00:21:45;102123.09;;;11.21;100.00
71774;BME280;59607;52.130;5.430;2024-03-22T00:24:17;102111.06;;;11.18;100.00
71774;BME280;59607;52.130;5.430;2024-03-22T00:26:43;102113.56;;;11.20;100.00
71774;BME280;59607;52.130;5.430;2024-03-22T00:29:08;102109.44;;;11.17;100.00
71774;BME280;59607;52.130;5.430;2024-03-22T00:31:34;102107.75;;;11.16;100.00
71774;BME280;59607;52.130;5.430;2024-03-22T00:34:01;102102.63;;;11.15;100.00
71774;BME280;59607;52.130;5.430;2024-03-22T00:36:28;102097.50;;;11.13;100.00
71774;BME280;59607;52.130;5.430;2024-03-22T00:38:54;102096.00;;;11.10;100.00
71774;BME280;59607;52.130;5.430;2024-03-22T00:41:19;102097.78;;;11.10;100.00
71774;BME280;59607;52.130;5.430;2024-03-22T00:43:45;102091.03;;;11.07;100.00
71774;BME280;59607;52.130;5.430;2024-03-22T00:46:13;102079.69;;;11.07;100.00
71774;BME280;59607;52.130;5.430;2024-03-22T00:48:39;102073.59;;;11.06;100.00
71774;BME280;59607;52.130;5.430;2024-03-22T00:51:04;102065.84;;;11.05;100.00
71774;BME280;59607;52.130;5.430;2024-03-22T00:53:33;102063.34;;;11.03;100.00
71774;BME280;59607;52.130;5.430;2024-03-22T00:55:59;102054.53;;;11.04;100.00
71774;BME280;59607;52.130;5.430;2024-03-22T00:58:30;102059.78;;;11.04;100.00
71774;BME280;59607;52.130;5.430;2024-03-22T01:00:56;102051.22;;;11.02;100.00
71774;BME280;59607;52.130;5.430;2024-03-22T01:03:22;102051.06;;;11.04;100.00
71774;BME280;59607;52.130;5.430;2024-03-22T01:05:47;102061.72;;;11.02;100.00
71774;BME280;59607;52.130;5.430;2024-03-22T01:08:13;102055.63;;;11.02;100.00
71774;BME280;59607;52.130;5.430;2024-03-22T01:10:41;102058.09;;;11.03;100.00
71774;BME280;59607;52.130;5.430;2024-03-22T01:13:07;102051.91;;;11.04;100.00
71774;BME280;59607;52.130;5.430;2024-03-22T01:15:33;102049.16;;;11.06;100.00
71774;BME280;59607;52.130;5.430;2024-03-22T01:17:59;102035.03;;;11.07;100.00
71774;BME280;59607;52.130;5.430;2024-03-22T01:20:26;102040.28;;;11.07;100.00
71774;BME280;59607;52.130;5.430;2024-03-22T01:22:52;102040.28;;;11.07;100.00
71774;BME280;59607;52.130;5.430;2024-03-22T01:25:18;102056.75;;;11.09;100.00
71774;BME280;59607;52.130;5.430;2024-03-22T01:27:46;102052.44;;;11.08;100.00
71774;BME280;59607;52.130;5.430;2024-03-22T01:30:16;102052.59;;;11.06;100.00
71774;BME280;59607;52.130;5.430;2024-03-22T01:32:42;102046.38;;;11.07;100.00
71774;BME280;59607;52.130;5.430;2024-03-22T01:35:13;102040.16;;;11.08;100.00
71774;BME280;59607;52.130;5.430;2024-03-22T01:37:42;102034.91;;;11.08;100.00
71774;BME280;59607;52.130;5.430;2024-03-22T01:40:08;102031.19;;;11.11;100.00
71774;BME280;59607;52.130;5.430;2024-03-22T01:42:38;102033.81;;;11.11;100.00
71774;BME280;59607;52.130;5.430;2024-03-22T01:45:04;102025.81;;;11.13;100.00
71774;BME280;59607;52.130;5.430;2024-03-22T01:47:29;102025.66;;;11.14;100.00
71774;BME280;59607;52.130;5.430;2024-03-22T01:49:56;102012.41;;;11.16;100.00
71774;BME280;59607;52.130;5.430;2024-03-22T01:52:22;102014.91;;;11.17;100.00
71774;BME280;59607;52.130;5.430;2024-03-22T01:54:51;102008.94;;;11.15;100.00
71774;BME280;59607;52.130;5.430;2024-03-22T01:57:16;102015.16;;;11.14;100.00
71774;BME280;59607;52.130;5.430;2024-03-22T01:59:42;102000.22;;;11.15;100.00
71774;BME280;59607;52.130;5.430;2024-03-22T02:02:07;102022.06;;;11.15;100.00
71774;BME280;59607;52.130;5.430;2024-03-22T02:04:34;102010.06;;;11.13;100.00
71774;BME280;59607;52.130;5.430;2024-03-22T02:06:59;102017.09;;;11.12;100.00
71774;BME280;59607;52.130;5.430;2024-03-22T02:09:25;102016.97;;;11.14;100.00
71774;BME280;59607;52.130;5.430;2024-03-22T02:11:51;102016.81;;;11.15;100.00
71774;BME280;59607;52.130;5.430;2024-03-22T02:14:21;102005.47;;;11.15;100.00
71774;BME280;59607;52.130;5.430;2024-03-22T02:16:46;102008.09;;;11.15;100.00
71774;BME280;59607;52.130;5.430;2024-03-22T02:19:15;102007.97;;;11.16;100.00
71774;BME280;59607;52.130;5.430;2024-03-22T02:21:44;102001.91;;;11.16;100.00
71774;BME280;59607;52.130;5.430;2024-03-22T02:24:09;101993.88;;;11.17;100.00
71774;BME280;59607;52.130;5.430;2024-03-22T02:26:35;101992.91;;;11.18;100.00
71774;BME280;59607;52.130;5.430;2024-03-22T02:29:00;101993.59;;;11.20;100.00
71774;BME280;59607;52.130;5.430;2024-03-22T02:31:29;101991.94;;;11.19;100.00
71774;BME280;59607;52.130;5.430;2024-03-22T02:33:54;101990.84;;;11.22;100.00
71774;BME280;59607;52.130;5.430;2024-03-22T02:36:23;101991.66;;;11.22;100.00
71774;BME280;59607;52.130;5.430;2024-03-22T02:38:52;101989.88;;;11.23;100.00
71774;BME280;59607;52.130;5.430;2024-03-22T02:41:17;101988.22;;;11.22;100.00
71774;BME280;59607;52.130;5.430;2024-03-22T02:43:43;101983.78;;;11.22;100.00
71774;BME280;59607;52.130;5.430;2024-03-22T02:46:09;101978.53;;;11.22;100.00
71774;BME280;59607;52.130;5.430;2024-03-22T02:48:38;101979.50;;;11.21;100.00
71774;BME280;59607;52.130;5.430;2024-03-22T02:51:04;101967.22;;;11.22;100.00
71774;BME280;59607;52.130;5.430;2024-03-22T02:53:33;101956.84;;;11.20;100.00
71774;BME280;59607;52.130;5.430;2024-03-22T02:56:02;101949.78;;;11.21;100.00
71774;BME280;59607;52.130;5.430;2024-03-22T02:58:27;101951.72;;;11.19;100.00
71774;BME280;59607;52.130;5.430;2024-03-22T03:00:53;101943.00;;;11.18;100.00
71774;BME280;59607;52.130;5.430;2024-03-22T03:03:19;101940.66;;;11.15;100.00
71774;BME280;59607;52.130;5.430;2024-03-22T03:05:47;101929.47;;;11.13;100.00
71774;BME280;59607;52.130;5.430;2024-03-22T03:08:13;101922.56;;;11.12;100.00
71774;BME280;59607;52.130;5.430;2024-03-22T03:10:38;101913.84;;;11.11;100.00
71774;BME280;59607;52.130;5.430;2024-03-22T03:13:10;101916.63;;;11.10;100.00
71774;BME280;59607;52.130;5.430;2024-03-22T03:15:35;101907.09;;;11.09;100.00
71774;BME280;59607;52.130;5.430;2024-03-22T03:18:04;101902.94;;;11.06;100.00
71774;BME280;59607;52.130;5.430;2024-03-22T03:20:33;101903.22;;;11.03;100.00
71774;BME280;59607;52.130;5.430;2024-03-22T03:22:59;101898.38;;;10.98;100.00
71774;BME280;59607;52.130;5.430;2024-03-22T03:25:26;101903.06;;;10.95;100.00
71774;BME280;59607;52.130;5.430;2024-03-22T03:27:52;101901.00;;;10.89;100.00
71774;BME280;59607;52.130;5.430;2024-03-22T03:30:18;101904.63;;;10.88;100.00
71774;BME280;59607;52.130;5.430;2024-03-22T03:32:43;101898.94;;;10.82;100.00
71774;BME280;59607;52.130;5.430;2024-03-22T03:35:09;101893.84;;;10.81;100.00
71774;BME280;59607;52.130;5.430;2024-03-22T03:37:37;101886.09;;;10.79;100.00
71774;BME280;59607;52.130;5.430;2024-03-22T03:40:03;101886.38;;;10.76;100.00
71774;BME280;59607;52.130;5.430;2024-03-22T03:42:29;101871.88;;;10.72;100.00
71774;BME280;59607;52.130;5.430;2024-03-22T03:44:55;101873.53;;;10.73;100.00
71774;BME280;59607;52.130;5.430;2024-03-22T03:47:27;101863.19;;;10.71;100.00
71774;BME280;59607;52.130;5.430;2024-03-22T03:49:52;101870.34;;;10.69;100.00
71774;BME280;59607;52.130;5.430;2024-03-22T03:52:18;101867.06;;;10.67;100.00
71774;BME280;59607;52.130;5.430;2024-03-22T03:54:44;101856.81;;;10.64;100.00
71774;BME280;59607;52.130;5.430;2024-03-22T03:57:13;101858.47;;;10.65;100.00
71774;BME280;59607;52.130;5.430;2024-03-22T03:59:38;101854.31;;;10.63;100.00
71774;BME280;59607;52.130;5.430;2024-03-22T04:02:04;101862.31;;;10.61;100.00
71774;BME280;59607;52.130;5.430;2024-03-22T04:04:30;101846.88;;;10.58;100.00
71774;BME280;59607;52.130;5.430;2024-03-22T04:06:59;101859.19;;;10.57;100.00
71774;BME280;59607;52.130;5.430;2024-03-22T04:09:24;101860.13;;;10.56;100.00
71774;BME280;59607;52.130;5.430;2024-03-22T04:11:50;101847.97;;;10.55;100.00
71774;BME280;59607;52.130;5.430;2024-03-22T04:14:15;101846.59;;;10.51;100.00
71774;BME280;59607;52.130;5.430;2024-03-22T04:16:44;101855.28;;;10.52;100.00
71774;BME280;59607;52.130;5.430;2024-03-22T04:19:09;101862.31;;;10.51;100.00
71774;BME280;59607;52.130;5.430;2024-03-22T04:21:35;101860.66;;;10.50;100.00
71774;BME280;59607;52.130;5.430;2024-03-22T04:24:01;101866.91;;;10.49;100.00
71774;BME280;59607;52.130;5.430;2024-03-22T04:26:27;101859.16;;;10.47;100.00
71774;BME280;59607;52.130;5.430;2024-03-22T04:28:52;101867.56;;;10.51;100.00
71774;BME280;59607;52.130;5.430;2024-03-22T04:31:19;101856.25;;;10.51;100.00
71774;BME280;59607;52.130;5.430;2024-03-22T04:33:45;101852.81;;;10.50;100.00
71774;BME280;59607;52.130;5.430;2024-03-22T04:36:12;101852.94;;;10.48;100.00
71774;BME280;59607;52.130;5.430;2024-03-22T04:38:38;101845.22;;;10.47;100.00
71774;BME280;59607;52.130;5.430;2024-03-22T04:41:04;101855.94;;;10.44;100.00
71774;BME280;59607;52.130;5.430;2024-03-22T04:43:35;101856.91;;;10.43;100.00
71774;BME280;59607;52.130;5.430;2024-03-22T04:46:01;101852.63;;;10.42;100.00
71774;BME280;59607;52.130;5.430;2024-03-22T04:48:29;101860.63;;;10.40;100.00
71774;BME280;59607;52.130;5.430;2024-03-22T04:51:01;101861.59;;;10.39;100.00
71774;BME280;59607;52.130;5.430;2024-03-22T04:53:26;101861.75;;;10.37;100.00
71774;BME280;59607;52.130;5.430;2024-03-22T04:55:52;101853.03;;;10.37;100.00
71774;BME280;59607;52.130;5.430;2024-03-22T04:58:20;101853.03;;;10.37;100.00
71774;BME280;59607;52.130;5.430;2024-03-22T05:00:55;101853.16;;;10.35;100.00
71774;BME280;59607;52.130;5.430;2024-03-22T05:03:21;101859.25;;;10.36;100.00
71774;BME280;59607;52.130;5.430;2024-03-22T05:05:50;101857.56;;;10.35;100.00
71774;BME280;59607;52.130;5.430;2024-03-22T05:08:16;101862.00;;;10.34;100.00
71774;BME280;59607;52.130;5.430;2024-03-22T05:10:44;101857.56;;;10.35;100.00
71774;BME280;59607;52.130;5.430;2024-03-22T05:13:12;101858.41;;;10.35;100.00
71774;BME280;59607;52.130;5.430;2024-03-22T05:15:38;101854.97;;;10.35;100.00
71774;BME280;59607;52.130;5.430;2024-03-22T05:18:06;101855.94;;;10.34;100.00
71774;BME280;59607;52.130;5.430;2024-03-22T05:20:35;101856.78;;;10.34;100.00
71774;BME280;59607;52.130;5.430;2024-03-22T05:23:00;101848.91;;;10.34;100.00
71774;BME280;59607;52.130;5.430;2024-03-22T05:25:32;101854.16;;;10.34;100.00
71774;BME280;59607;52.130;5.430;2024-03-22T05:28:00;101853.31;;;10.34;100.00
71774;BME280;59607;52.130;5.430;2024-03-22T05:30:26;101848.06;;;10.34;100.00
71774;BME280;59607;52.130;5.430;2024-03-22T05:33:01;101848.34;;;10.31;100.00
71774;BME280;59607;52.130;5.430;2024-03-22T05:35:27;101839.91;;;10.27;100.00
71774;BME280;59607;52.130;5.430;2024-03-22T05:37:52;101835.50;;;10.28;100.00
71774;BME280;59607;52.130;5.430;2024-03-22T05:40:24;101837.28;;;10.27;100.00
71774;BME280;59607;52.130;5.430;2024-03-22T05:42:50;101837.28;;;10.27;100.00
71774;BME280;59607;52.130;5.430;2024-03-22T05:45:16;101830.25;;;10.28;100.00
71774;BME280;59607;52.130;5.430;2024-03-22T05:47:44;101832.03;;;10.27;100.00
71774;BME280;59607;52.130;5.430;2024-03-22T05:50:10;101833.00;;;10.26;100.00
71774;BME280;59607;52.130;5.430;2024-03-22T05:52:35;101828.84;;;10.23;100.00
71774;BME280;59607;52.130;5.430;2024-03-22T05:55:01;101821.97;;;10.22;100.00
71774;BME280;59607;52.130;5.430;2024-03-22T05:57:35;101823.06;;;10.20;100.00
71774;BME280;59607;52.130;5.430;2024-03-22T06:00:00;101823.88;;;10.20;100.00
71774;BME280;59607;52.130;5.430;2024-03-22T06:02:32;101814.22;;;10.21;100.00
71774;BME280;59607;52.130;5.430;2024-03-22T06:04:58;101806.38;;;10.21;100.00
71774;BME280;59607;52.130;5.430;2024-03-22T06:07:23;101811.63;;;10.21;100.00
71774;BME280;59607;52.130;5.430;2024-03-22T06:09:52;101804.44;;;10.23;100.00
71774;BME280;59607;52.130;5.430;2024-03-22T06:12:21;101811.34;;;10.24;100.00
71774;BME280;59607;52.130;5.430;2024-03-22T06:14:47;101802.53;;;10.25;100.00
71774;BME280;59607;52.130;5.430;2024-03-22T06:17:14;101806.66;;;10.28;100.00
71774;BME280;59607;52.130;5.430;2024-03-22T06:19:40;101798.78;;;10.28;100.00
71774;BME280;59607;52.130;5.430;2024-03-22T06:22:06;101803.06;;;10.29;100.00
71774;BME280;59607;52.130;5.430;2024-03-22T06:24:31;101804.47;;;10.33;100.00
71774;BME280;59607;52.130;5.430;2024-03-22T06:26:57;101804.19;;;10.36;100.00
71774;BME280;59607;52.130;5.430;2024-03-22T06:29:22;101795.91;;;10.41;100.00
71774;BME280;59607;52.130;5.430;2024-03-22T06:31:51;101798.38;;;10.42;100.00
71774;BME280;59607;52.130;5.430;2024-03-22T06:34:17;101798.00;;;10.47;100.00
71774;BME280;59607;52.130;5.430;2024-03-22T06:36:49;101802.00;;;10.51;100.00
71774;BME280;59607;52.130;5.430;2024-03-22T06:39:19;101804.38;;;10.54;100.00
71774;BME280;59607;52.130;5.430;2024-03-22T06:41:45;101801.47;;;10.57;100.00
71774;BME280;59607;52.130;5.430;2024-03-22T06:44:13;101799.22;;;10.63;100.00
71774;BME280;59607;52.130;5.430;2024-03-22T06:46:39;101792.59;;;10.68;100.00
71774;BME280;59607;52.130;5.430;2024-03-22T06:49:05;101797.44;;;10.73;100.00
71774;BME280;59607;52.130;5.430;2024-03-22T06:51:31;101808.63;;;10.75;100.00
71774;BME280;59607;52.130;5.430;2024-03-22T06:53:56;101799.63;;;10.78;100.00
71774;BME280;59607;52.130;5.430;2024-03-22T06:56:25;101796.88;;;10.79;100.00
71774;BME280;59607;52.130;5.430;2024-03-22T06:58:50;101807.63;;;10.86;100.00
71774;BME280;59607;52.130;5.430;2024-03-22T07:01:16;101799.63;;;10.88;100.00
71774;BME280;59607;52.130;5.430;2024-03-22T07:03:41;101798.38;;;10.92;100.00
71774;BME280;59607;52.130;5.430;2024-03-22T07:06:14;101804.72;;;10.99;100.00
71774;BME280;59607;52.130;5.430;2024-03-22T07:08:40;101798.34;;;11.02;100.00
71774;BME280;59607;52.130;5.430;2024-03-22T07:11:06;101800.53;;;11.06;100.00
71774;BME280;59607;52.130;5.430;2024-03-22T07:13:32;101798.75;;;11.07;100.00
71774;BME280;59607;52.130;5.430;2024-03-22T07:15:58;101803.44;;;11.03;100.00
71774;BME280;59607;52.130;5.430;2024-03-22T07:18:23;101789.81;;;11.00;100.00
71774;BME280;59607;52.130;5.430;2024-03-22T07:20:49;101792.00;;;11.04;100.00
71774;BME280;59607;52.130;5.430;2024-03-22T07:23:18;101795.16;;;11.08;100.00
71774;BME280;59607;52.130;5.430;2024-03-22T07:25:44;101802.34;;;11.06;100.00
71774;BME280;59607;52.130;5.430;2024-03-22T07:28:20;101793.66;;;11.05;100.00
71774;BME280;59607;52.130;5.430;2024-03-22T07:30:46;101794.63;;;11.04;100.00
71774;BME280;59607;52.130;5.430;2024-03-22T07:33:13;101796.41;;;11.04;100.00
71774;BME280;59607;52.130;5.430;2024-03-22T07:35:45;101803.31;;;11.05;100.00
71774;BME280;59607;52.130;5.430;2024-03-22T07:38:10;101792.81;;;11.05;100.00
71774;BME280;59607;52.130;5.430;2024-03-22T07:40:39;101802.66;;;11.03;100.00
71774;BME280;59607;52.130;5.430;2024-03-22T07:43:08;101806.50;;;10.98;100.00
71774;BME280;59607;52.130;5.430;2024-03-22T07:45:34;101803.22;;;10.96;100.00
71774;BME280;59607;52.130;5.430;2024-03-22T07:48:00;101784.16;;;10.94;100.00
71774;BME280;59607;52.130;5.430;2024-03-22T07:50:25;101799.91;;;10.94;100.00
71774;BME280;59607;52.130;5.430;2024-03-22T07:52:55;101790.19;;;10.95;100.00
71774;BME280;59607;52.130;5.430;2024-03-22T07:55:23;101794.38;;;10.97;100.00
71774;BME280;59607;52.130;5.430;2024-03-22T07:57:50;101789.13;;;10.97;100.00
71774;BME280;59607;52.130;5.430;2024-03-22T08:00:19;101799.63;;;10.97;100.00
71774;BME280;59607;52.130;5.430;2024-03-22T08:02:45;101799.63;;;10.97;100.00
71774;BME280;59607;52.130;5.430;2024-03-22T08:05:10;101796.16;;;10.97;100.00
71774;BME280;59607;52.130;5.430;2024-03-22T08:07:36;101799.31;;;11.01;100.00
71774;BME280;59607;52.130;5.430;2024-03-22T08:10:01;101797.53;;;11.01;100.00
71774;BME280;59607;52.130;5.430;2024-03-22T08:12:28;101797.41;;;11.03;100.00
71774;BME280;59607;52.130;5.430;2024-03-22T08:14:57;101786.91;;;11.03;100.00
71774;BME280;59607;52.130;5.430;2024-03-22T08:17:25;101783.44;;;11.02;100.00
71774;BME280;59607;52.130;5.430;2024-03-22T08:19:50;101793.25;;;11.00;100.00
71774;BME280;59607;52.130;5.430;2024-03-22T08:22:16;101796.00;;;10.98;100.00
71774;BME280;59607;52.130;5.430;2024-03-22T08:24:42;101789.53;;;11.03;100.00
71774;BME280;59607;52.130;5.430;2024-03-22T08:27:12;101793.38;;;10.98;100.00
71774;BME280;59607;52.130;5.430;2024-03-22T08:29:40;101781.66;;;10.93;100.00
71774;BME280;59607;52.130;5.430;2024-03-22T08:32:09;101791.75;;;10.88;100.00
71774;BME280;59607;52.130;5.430;2024-03-22T08:34:35;101787.47;;;10.86;100.00
71774;BME280;59607;52.130;5.430;2024-03-22T08:37:00;101791.75;;;10.88;100.00
71774;BME280;59607;52.130;5.430;2024-03-22T08:39:26;101788.56;;;10.84;100.00
71774;BME280;59607;52.130;5.430;2024-03-22T08:41:52;101794.25;;;10.79;100.00
71774;BME280;59607;52.130;5.430;2024-03-22T08:44:20;101787.91;;;10.82;100.00
71774;BME280;59607;52.130;5.430;2024-03-22T08:46:47;101785.69;;;10.77;100.00
71774;BME280;59607;52.130;5.430;2024-03-22T08:49:15;101782.25;;;10.77;100.00
71774;BME280;59607;52.130;5.430;2024-03-22T08:51:44;101784.59;;;10.80;100.00
71774;BME280;59607;52.130;5.430;2024-03-22T08:54:11;101786.50;;;10.78;100.00
71774;BME280;59607;52.130;5.430;2024-03-22T08:56:36;101777.81;;;10.77;100.00
71774;BME280;59607;52.130;5.430;2024-03-22T08:59:06;101788.03;;;10.80;100.00
71774;BME280;59607;52.130;5.430;2024-03-22T09:01:32;101772.28;;;10.80;100.00
71774;BME280;59607;52.130;5.430;2024-03-22T09:03:59;101776.84;;;10.78;100.00
71774;BME280;59607;52.130;5.430;2024-03-22T09:06:25;101785.69;;;10.77;100.00
71774;BME280;59607;52.130;5.430;2024-03-22T09:08:53;101775.88;;;10.79;100.00
71774;BME280;59607;52.130;5.430;2024-03-22T09:11:25;101775.88;;;10.79;100.00
71774;BME280;59607;52.130;5.430;2024-03-22T09:13:55;101778.38;;;10.81;100.00
71774;BME280;59607;52.130;5.430;2024-03-22T09:16:20;101780.28;;;10.79;100.00
71774;BME280;59607;52.130;5.430;2024-03-22T09:18:46;101784.44;;;10.81;100.00
71774;BME280;59607;52.130;5.430;2024-03-22T09:21:18;101777.78;;;10.87;100.00
71774;BME280;59607;52.130;5.430;2024-03-22T09:23:44;101774.38;;;10.86;100.00
71774;BME280;59607;52.130;5.430;2024-03-22T09:26:09;101778.91;;;10.84;100.00
71774;BME280;59607;52.130;5.430;2024-03-22T09:28:35;101778.91;;;10.84;100.00
71774;BME280;59607;52.130;5.430;2024-03-22T09:31:04;101775.16;;;10.87;100.00
71774;BME280;59607;52.130;5.430;2024-03-22T09:33:34;101774.22;;;10.88;100.00
71774;BME280;59607;52.130;5.430;2024-03-22T09:36:01;101777.50;;;10.90;100.00
71774;BME280;59607;52.130;5.430;2024-03-22T09:38:27;101768.69;;;10.91;100.00
71774;BME280;59607;52.130;5.430;2024-03-22T09:40:53;101778.19;;;10.92;100.00
71774;BME280;59607;52.130;5.430;2024-03-22T09:43:23;101773.09;;;10.91;100.00
71774;BME280;59607;52.130;5.430;2024-03-22T09:45:52;101773.53;;;10.86;100.00
71774;BME280;59607;52.130;5.430;2024-03-22T09:48:18;101772.69;;;10.85;100.00
71774;BME280;59607;52.130;5.430;2024-03-22T09:50:47;101760.25;;;10.88;100.00
71774;BME280;59607;52.130;5.430;2024-03-22T09:53:19;101757.34;;;10.91;100.00
71774;BME280;59607;52.130;5.430;2024-03-22T09:55:46;101769.34;;;10.93;100.00
71774;BME280;59607;52.130;5.430;2024-03-22T09:58:12;101764.50;;;10.98;100.00
71774;BME280;59607;52.130;5.430;2024-03-22T10:00:38;101765.63;;;10.96;100.00
71774;BME280;59607;52.130;5.430;2024-03-22T10:03:04;101762.03;;;10.97;100.00
71774;BME280;59607;52.130;5.430;2024-03-22T10:05:31;101765.63;;;10.96;100.00
71774;BME280;59607;52.130;5.430;2024-03-22T10:07:57;101759.00;;;10.92;100.00
71774;BME280;59607;52.130;5.430;2024-03-22T10:10:23;101765.38;;;10.89;100.00
71774;BME280;59607;52.130;5.430;2024-03-22T10:12:48;101756.50;;;10.90;100.00
71774;BME280;59607;52.130;5.430;2024-03-22T10:15:14;101760.53;;;10.94;100.00
71774;BME280;59607;52.130;5.430;2024-03-22T10:17:42;101753.19;;;10.98;100.00
71774;BME280;59607;52.130;5.430;2024-03-22T10:20:13;101754.84;;;10.99;100.00
71774;BME280;59607;52.130;5.430;2024-03-22T10:22:59;101751.78;;;11.04;100.00
71774;BME280;59607;52.130;5.430;2024-03-22T10:25:27;101750.38;;;11.09;100.00
71774;BME280;59607;52.130;5.430;2024-03-22T10:27:56;101745.13;;;11.09;100.00
71774;BME280;59607;52.130;5.430;2024-03-22T10:30:24;101747.19;;;11.16;100.00
71774;BME280;59607;52.130;5.430;2024-03-22T10:32:51;101746.38;;;11.15;100.00
71774;BME280;59607;52.130;5.430;2024-03-22T10:35:17;101742.78;;;11.06;100.00
71774;BME280;59607;52.130;5.430;2024-03-22T10:37:43;101746.53;;;11.04;100.00
71774;BME280;59607;52.130;5.430;2024-03-22T10:40:10;101747.38;;;11.04;100.00
71774;BME280;59607;52.130;5.430;2024-03-22T10:42:45;101742.41;;;11.01;100.00
71774;BME280;59607;52.130;5.430;2024-03-22T10:45:12;101744.88;;;11.03;100.00
71774;BME280;59607;52.130;5.430;2024-03-22T10:47:38;101742.50;;;11.09;100.00
71774;BME280;59607;52.130;5.430;2024-03-22T10:50:05;101750.28;;;11.01;100.00
71774;BME280;59607;52.130;5.430;2024-03-22T10:52:40;101748.03;;;11.06;100.00
71774;BME280;59607;52.130;5.430;2024-03-22T10:55:16;101747.63;;;11.11;100.00
71774;BME280;59607;52.130;5.430;2024-03-22T10:57:44;101750.25;;;11.11;100.00
71774;BME280;59607;52.130;5.430;2024-03-22T11:00:14;101752.44;;;11.16;100.00
71774;BME280;59607;52.130;5.430;2024-03-22T11:02:43;101755.22;;;11.14;100.00
71774;BME280;59607;52.130;5.430;2024-03-22T11:05:27;101740.28;;;11.15;100.00
71774;BME280;59607;52.130;5.430;2024-03-22T11:08:28;101737.22;;;11.19;100.00
71774;BME280;59607;52.130;5.430;2024-03-22T11:10:56;101744.63;;;11.34;100.00
71774;BME280;59607;52.130;5.430;2024-03-22T11:13:22;101735.50;;;11.38;100.00
71774;BME280;59607;52.130;5.430;2024-03-22T11:15:54;101736.72;;;11.34;100.00
71774;BME280;59607;52.130;5.430;2024-03-22T11:18:23;101741.56;;;11.39;100.00
71774;BME280;59607;52.130;5.430;2024-03-22T11:20:52;101735.00;;;11.53;100.00
71774;BME280;59607;52.130;5.430;2024-03-22T11:23:18;101727.50;;;11.58;100.00
71774;BME280;59607;52.130;5.430;2024-03-22T11:25:58;101724.88;;;11.58;100.00
71774;BME280;59607;52.130;5.430;2024-03-22T11:28:23;101723.31;;;11.65;100.00
71774;BME280;59607;52.130;5.430;2024-03-22T11:30:49;101713.94;;;11.81;100.00
71774;BME280;59607;52.130;5.430;2024-03-22T11:33:21;101721.38;;;12.04;100.00
71774;BME280;59607;52.130;5.430;2024-03-22T11:35:47;101715.25;;;12.13;100.00
71774;BME280;59607;52.130;5.430;2024-03-22T11:38:15;101718.84;;;12.12;100.00
71774;BME280;59607;52.130;5.430;2024-03-22T11:40:43;101711.88;;;12.21;100.00
71774;BME280;59607;52.130;5.430;2024-03-22T11:43:13;101706.53;;;12.31;100.00
71774;BME280;59607;52.130;5.430;2024-03-22T11:45:42;101698.88;;;12.19;100.00
71774;BME280;59607;52.130;5.430;2024-03-22T11:48:09;101699.69;;;12.20;100.00
71774;BME280;59607;52.130;5.430;2024-03-22T11:50:36;101697.44;;;12.25;100.00
71774;BME280;59607;52.130;5.430;2024-03-22T11:53:02;101690.16;;;12.19;100.00
71774;BME280;59607;52.130;5.430;2024-03-22T11:55:30;101696.22;;;12.01;100.00
71774;BME280;59607;52.130;5.430;2024-03-22T11:57:59;101702.47;;;12.00;100.00
71774;BME280;59607;52.130;5.430;2024-03-22T12:00:25;101696.38;;;12.00;100.00
71774;BME280;59607;52.130;5.430;2024-03-22T12:02:52;101691.34;;;11.88;100.00
71774;BME280;59607;52.130;5.430;2024-03-22T12:05:18;101694.13;;;11.87;100.00
71774;BME280;59607;52.130;5.430;2024-03-22T12:07:46;101697.59;;;11.87;100.00
71774;BME280;59607;52.130;5.430;2024-03-22T12:10:12;101692.63;;;11.84;100.00
71774;BME280;59607;52.130;5.430;2024-03-22T12:12:39;101691.84;;;11.73;100.00
71774;BME280;59607;52.130;5.430;2024-03-22T12:15:11;101690.63;;;11.68;100.00
71774;BME280;59607;52.130;5.430;2024-03-22T12:17:36;101687.25;;;11.57;100.00
71774;BME280;59607;52.130;5.430;2024-03-22T12:20:11;101686.19;;;11.50;100.00
71774;BME280;59607;52.130;5.430;2024-03-22T12:22:37;101686.94;;;11.42;100.00
71774;BME280;59607;52.130;5.430;2024-03-22T12:25:08;101689.00;;;11.39;100.00
71774;BME280;59607;52.130;5.430;2024-03-22T12:27:38;101691.44;;;11.32;100.00
71774;BME280;59607;52.130;5.430;2024-03-22T12:30:09;101684.94;;;11.26;100.00
71774;BME280;59607;52.130;5.430;2024-03-22T12:32:44;101685.78;;;11.27;100.00
71774;BME280;59607;52.130;5.430;2024-03-22T12:35:10;101687.66;;;11.34;100.00
71774;BME280;59607;52.130;5.430;2024-03-22T12:37:36;101684.75;;;11.38;100.00
71774;BME280;59607;52.130;5.430;2024-03-22T12:40:05;101675.06;;;11.38;100.00
71774;BME280;59607;52.130;5.430;2024-03-22T12:42:34;101673.41;;;11.37;100.00